Time;durP1;ratioP1;P1;durP2;ratioP2;P2;SDS_P1;SDS_P2;PMS_P1;PMS_P2;Temp;Humidity;BMP_temperature;BMP_pressure;BME280_temperature;BME280_humidity;BME280_pressure;Samples;Min_cycle;Max_cycle;Signal;HPM_P1;HPM_P2
2021/11/10 01:40:25;;;;;;;11.43;6.10;;;4.20;99.90;;;;;;5077038;23;20241;-95
2021/11/10 01:42:51;;;;;;;12.17;6.37;;;4.10;99.90;;;;;;5055080;28;20217;-96
2021/11/10 01:45:18;;;;;;;9.20;5.07;;;4.10;99.90;;;;;;5055601;28;20197;-96
2021/11/10 01:47:45;;;;;;;10.87;5.53;;;4.00;99.90;;;;;;5056447;28;20223;-96
2021/11/10 01:50:14;;;;;;;12.43;5.70;;;4.00;99.90;;;;;;5055884;28;20495;-96
2021/11/10 01:52:50;;;;;;;12.70;5.93;;;3.90;99.90;;;;;;5055968;28;20213;-96
2021/11/10 01:55:16;;;;;;;8.93;5.47;;;3.90;99.90;;;;;;5056371;28;20182;-96
2021/11/10 01:57:43;;;;;;;11.13;5.77;;;3.90;99.90;;;;;;5056151;28;20247;-96
2021/11/10 02:00:15;;;;;;;8.77;5.43;;;3.80;99.90;;;;;;5056343;28;20186;-96
2021/11/10 02:02:47;;;;;;;8.23;6.10;;;3.80;99.90;;;;;;5055929;28;20181;-96
2021/11/10 02:05:15;;;;;;;7.87;5.20;;;3.80;99.90;;;;;;5056008;28;20177;-96
2021/11/10 02:07:42;;;;;;;7.67;5.40;;;3.70;99.90;;;;;;5055832;28;20196;-96
2021/11/10 02:10:10;;;;;;;10.00;5.60;;;3.60;99.90;;;;;;5055725;28;20527;-96
2021/11/10 02:12:38;;;;;;;8.20;5.47;;;3.60;99.90;;;;;;5056259;28;20604;-96
2021/11/10 02:15:12;;;;;;;8.87;5.10;;;3.60;99.90;;;;;;5056266;28;20182;-96
2021/11/10 02:17:38;;;;;;;11.63;6.00;;;3.60;99.90;;;;;;5056691;28;20218;-96
2021/11/10 02:20:06;;;;;;;9.97;5.40;;;3.60;99.90;;;;;;5056787;28;20186;-96
2021/11/10 02:22:33;;;;;;;10.30;5.53;;;3.60;99.90;;;;;;5058009;28;20284;-96
2021/11/10 02:25:01;;;;;;;11.90;6.23;;;3.50;99.90;;;;;;5055927;28;20186;-96
2021/11/10 02:27:33;;;;;;;8.67;5.57;;;3.50;99.90;;;;;;5056126;28;20189;-95
2021/11/10 02:30:00;;;;;;;7.27;5.07;;;3.50;99.90;;;;;;5056171;28;20232;-96
2021/11/10 02:32:30;;;;;;;8.87;5.07;;;3.50;99.90;;;;;;5055967;28;20221;-95
2021/11/10 02:34:56;;;;;;;6.63;4.87;;;3.40;99.90;;;;;;5056007;28;20185;-96
2021/11/10 02:37:22;;;;;;;10.37;5.23;;;3.40;99.90;;;;;;5055774;28;20194;-96
2021/11/10 02:39:51;;;;;;;8.17;5.20;;;3.50;99.90;;;;;;5056411;28;20264;-96
2021/11/10 02:42:35;;;;;;;9.60;5.60;;;3.40;99.90;;;;;;5038476;28;20620;-96
2021/11/10 02:45:01;;;;;;;10.63;4.90;;;3.40;99.90;;;;;;5038168;28;20200;-96
2021/11/10 02:47:27;;;;;;;6.73;5.07;;;3.40;99.90;;;;;;5038532;28;20194;-96
2021/11/10 02:49:53;;;;;;;9.50;6.07;;;3.30;99.90;;;;;;5040229;28;20216;-95
2021/11/10 02:52:21;;;;;;;12.80;6.27;;;3.30;99.90;;;;;;5038915;28;20271;-96
2021/11/10 02:54:53;;;;;;;11.87;6.73;;;3.30;99.90;;;;;;5038603;28;20190;-96
2021/11/10 02:57:25;;;;;;;11.37;6.43;;;3.30;99.90;;;;;;5039114;28;20186;-96
2021/11/10 02:59:51;;;;;;;9.33;6.40;;;3.30;99.90;;;;;;5038454;28;20193;-96
2021/11/10 03:02:36;;;;;;;10.33;5.40;;;3.30;99.90;;;;;;5022085;28;20209;-95
2021/11/10 03:05:04;;;;;;;9.37;5.60;;;3.30;99.90;;;;;;5038796;28;20268;-96
2021/11/10 03:07:32;;;;;;;9.47;5.87;;;3.20;99.90;;;;;;5039192;28;20217;-96
2021/11/10 03:09:58;;;;;;;10.10;6.43;;;3.30;99.90;;;;;;5019134;28;20640;-95
2021/11/10 03:12:24;;;;;;;11.43;6.80;;;3.30;99.90;;;;;;5018344;28;20226;-96
2021/11/10 03:14:50;;;;;;;16.27;7.00;;;3.30;99.90;;;;;;5019322;28;20198;-96
2021/11/10 03:17:18;;;;;;;10.13;6.53;;;3.20;99.90;;;;;;5018732;28;20186;-96
2021/11/10 03:19:44;;;;;;;10.33;6.33;;;3.30;99.90;;;;;;5018719;28;20190;-96
2021/11/10 03:22:15;;;;;;;12.17;7.00;;;3.30;99.90;;;;;;5018788;28;20277;-95
2021/11/10 03:24:42;;;;;;;15.07;6.83;;;3.20;99.90;;;;;;5018321;28;20194;-95
2021/11/10 03:27:08;;;;;;;11.80;6.33;;;3.20;99.90;;;;;;5018650;28;20195;-96
2021/11/10 03:29:35;;;;;;;10.90;6.57;;;3.20;99.90;;;;;;5023936;28;20197;-95
2021/11/10 03:32:21;;;;;;;13.60;6.83;;;3.20;99.90;;;;;;5037826;28;20601;-96
2021/11/10 03:34:50;;;;;;;9.33;6.17;;;3.20;99.90;;;;;;5038588;28;20604;-96
2021/11/10 03:37:17;;;;;;;9.80;5.90;;;3.20;99.90;;;;;;5038439;28;20193;-96
2021/11/10 03:39:43;;;;;;;10.07;6.00;;;3.20;99.90;;;;;;5018139;28;20198;-96
2021/11/10 03:42:17;;;;;;;9.53;5.73;;;3.10;99.90;;;;;;5050111;28;20312;-96
2021/11/10 03:44:43;;;;;;;10.70;6.47;;;3.10;99.90;;;;;;5035102;28;20194;-95
2021/11/10 03:47:10;;;;;;;12.10;6.17;;;3.10;99.90;;;;;;5034595;28;20242;-95
2021/11/10 03:49:36;;;;;;;13.37;6.23;;;3.00;99.90;;;;;;5034517;28;20197;-96
2021/11/10 03:52:02;;;;;;;9.17;6.07;;;3.10;99.90;;;;;;5034602;28;20222;-96
2021/11/10 03:54:28;;;;;;;10.87;6.67;;;3.10;99.90;;;;;;5034524;28;20213;-96
2021/11/10 03:56:54;;;;;;;10.27;5.60;;;3.00;99.90;;;;;;5036595;28;20625;-96
2021/11/10 03:59:20;;;;;;;11.17;6.60;;;2.90;99.90;;;;;;5038689;28;20254;-96
2021/11/10 04:01:46;;;;;;;9.97;6.50;;;2.90;99.90;;;;;;5038259;28;20195;-96
2021/11/10 04:04:13;;;;;;;12.77;6.80;;;2.80;99.90;;;;;;5037937;28;20182;-96
2021/11/10 04:06:38;;;;;;;10.10;6.30;;;2.80;99.90;;;;;;5037764;28;20290;-96
2021/11/10 04:09:06;;;;;;;9.00;6.20;;;2.80;99.90;;;;;;5037959;28;20186;-96
2021/11/10 04:11:32;;;;;;;9.87;5.47;;;2.80;99.90;;;;;;5037960;28;20556;-96
2021/11/10 04:14:09;;;;;;;12.60;6.57;;;2.80;99.90;;;;;;5050542;28;20190;-95
2021/11/10 04:16:35;;;;;;;7.57;5.33;;;2.70;99.90;;;;;;5057721;28;20213;-96
2021/11/10 04:19:01;;;;;;;7.03;4.77;;;2.70;99.90;;;;;;5057723;28;20239;-96
2021/11/10 04:21:27;;;;;;;7.33;5.40;;;2.60;99.90;;;;;;5058030;28;20608;-96
2021/11/10 04:23:56;;;;;;;8.20;5.03;;;2.60;99.90;;;;;;5057013;28;20185;-96
2021/11/10 04:26:24;;;;;;;7.60;4.97;;;2.60;99.90;;;;;;5057543;28;20191;-96
2021/11/10 04:28:50;;;;;;;9.13;5.23;;;2.60;99.90;;;;;;5057569;28;20613;-96
2021/11/10 04:31:17;;;;;;;9.63;5.47;;;2.70;99.90;;;;;;5057603;28;20224;-96
2021/11/10 04:33:43;;;;;;;9.20;5.63;;;2.60;99.90;;;;;;5057590;28;20522;-95
2021/11/10 04:36:10;;;;;;;10.27;5.20;;;2.60;99.90;;;;;;5057527;28;20178;-95
2021/11/10 04:38:36;;;;;;;8.43;5.60;;;2.60;99.90;;;;;;5057475;28;20280;-96
2021/11/10 04:41:02;;;;;;;7.60;5.60;;;2.60;99.90;;;;;;5056931;28;20225;-96
2021/11/10 04:43:35;;;;;;;11.13;5.87;;;2.50;99.90;;;;;;5057453;28;20534;-96
2021/11/10 04:46:26;;;;;;;10.37;6.23;;;2.50;99.90;;;;;;5057617;28;20182;-96
2021/11/10 04:48:50;;;;;;;11.70;5.33;;;2.60;99.90;;;;;;5058114;28;20190;-96
2021/11/10 04:51:17;;;;;;;9.40;5.10;;;2.70;99.90;;;;;;5057009;28;20228;-96
2021/11/10 04:53:47;;;;;;;10.30;5.93;;;2.60;99.90;;;;;;5056692;28;20312;-96
2021/11/10 04:56:13;;;;;;;8.83;5.60;;;2.50;99.90;;;;;;5057458;28;20520;-96
2021/11/10 04:58:39;;;;;;;7.97;5.10;;;2.50;99.90;;;;;;5057187;28;20188;-96
2021/11/10 05:01:05;;;;;;;8.67;5.83;;;2.50;99.90;;;;;;5056265;28;20285;-96
2021/11/10 05:03:31;;;;;;;10.70;5.77;;;2.60;99.90;;;;;;5057244;28;20209;-96
2021/11/10 05:05:57;;;;;;;11.90;5.83;;;2.60;99.90;;;;;;5058164;28;20531;-96
2021/11/10 05:08:25;;;;;;;8.70;5.40;;;2.60;99.90;;;;;;5056526;28;20239;-95
2021/11/10 05:10:51;;;;;;;9.70;5.97;;;2.60;99.90;;;;;;5057034;28;20237;-96
2021/11/10 05:13:26;;;;;;;8.63;5.97;;;2.60;99.90;;;;;;5056617;28;20197;-95
2021/11/10 05:15:52;;;;;;;16.03;6.20;;;2.60;99.90;;;;;;5056496;28;20220;-95
2021/11/10 05:18:18;;;;;;;9.53;6.23;;;2.70;99.90;;;;;;5056424;28;20194;-96
2021/11/10 05:20:44;;;;;;;11.87;5.63;;;2.60;99.90;;;;;;5056565;28;20213;-95
2021/11/10 05:23:18;;;;;;;8.63;5.20;;;2.60;99.90;;;;;;5057030;28;20193;-96
2021/11/10 05:25:44;;;;;;;8.13;5.57;;;2.60;99.90;;;;;;5056852;28;20192;-96
2021/11/10 05:28:10;;;;;;;8.80;5.77;;;2.60;99.90;;;;;;5057090;28;20182;-96
2021/11/10 05:30:36;;;;;;;8.40;5.40;;;2.60;99.90;;;;;;5056169;28;20218;-96
2021/11/10 05:33:03;;;;;;;8.10;6.13;;;2.50;99.90;;;;;;5056585;28;20624;-96
2021/11/10 05:35:29;;;;;;;8.37;5.73;;;2.60;99.90;;;;;;5056969;28;20190;-96
2021/11/10 05:37:55;;;;;;;12.40;6.10;;;2.60;99.90;;;;;;5057233;28;20190;-96
2021/11/10 05:40:21;;;;;;;13.43;6.30;;;2.60;99.90;;;;;;5057237;28;20233;-95
2021/11/10 05:42:47;;;;;;;9.03;5.23;;;2.60;99.90;;;;;;5056088;28;20613;-96
2021/11/10 05:45:15;;;;;;;11.93;6.27;;;2.60;99.90;;;;;;5056540;28;20186;-96
2021/11/10 05:47:41;;;;;;;10.47;6.73;;;2.50;99.90;;;;;;5039407;28;20244;-96
2021/11/10 05:50:09;;;;;;;11.20;5.80;;;2.50;99.90;;;;;;5056398;28;20197;-96
2021/11/10 05:52:35;;;;;;;9.07;6.07;;;2.50;99.90;;;;;;5055613;28;20629;-96
2021/11/10 05:55:14;;;;;;;7.63;5.80;;;2.50;99.90;;;;;;5056086;28;20223;-96
2021/11/10 05:57:40;;;;;;;11.20;5.77;;;2.40;99.90;;;;;;5056725;28;20196;-96
2021/11/10 06:00:09;;;;;;;9.67;5.73;;;2.40;99.90;;;;;;5056926;28;20186;-95
2021/11/10 06:02:35;;;;;;;10.43;6.07;;;2.30;99.90;;;;;;5058282;28;20190;-96
2021/11/10 06:05:01;;;;;;;9.17;5.43;;;2.30;99.90;;;;;;5056598;28;20190;-96
2021/11/10 06:07:27;;;;;;;8.70;6.00;;;2.30;99.90;;;;;;5056160;28;20186;-96
2021/11/10 06:09:53;;;;;;;9.43;6.10;;;2.30;99.90;;;;;;5058887;28;20531;-95
2021/11/10 06:12:18;;;;;;;11.00;6.60;;;2.30;99.90;;;;;;5058859;28;20221;-96
2021/11/10 06:14:50;;;;;;;8.77;6.30;;;2.20;99.90;;;;;;5060338;28;20185;-96
2021/11/10 06:17:16;;;;;;;11.37;6.77;;;2.20;99.90;;;;;;5060497;28;20189;-96
2021/11/10 06:19:41;;;;;;;12.20;6.60;;;2.10;99.90;;;;;;5054367;28;20187;-96
2021/11/10 06:22:07;;;;;;;10.03;5.73;;;2.10;99.90;;;;;;5053647;28;20194;-96
2021/11/10 06:24:41;;;;;;;12.33;7.20;;;2.10;99.90;;;;;;5056079;28;20190;-96
2021/11/10 06:27:07;;;;;;;19.50;11.50;;;2.20;99.90;;;;;;5057153;28;20685;-96
2021/11/10 06:29:33;;;;;;;14.07;8.70;;;2.20;99.90;;;;;;5056591;28;20186;-96
2021/11/10 06:32:00;;;;;;;8.73;5.97;;;2.30;99.90;;;;;;5055700;28;20252;-95
2021/11/10 06:34:39;;;;;;;8.40;5.63;;;2.20;99.90;;;;;;5039851;28;20197;-96
2021/11/10 06:37:06;;;;;;;9.97;6.43;;;2.10;99.90;;;;;;5055729;28;20190;-96
2021/11/10 06:39:32;;;;;;;13.93;7.67;;;2.10;99.90;;;;;;5055693;28;20200;-95
2021/11/10 06:41:58;;;;;;;12.23;6.07;;;2.00;99.90;;;;;;5055155;28;20230;-95
2021/11/10 06:44:25;;;;;;;9.17;5.80;;;2.00;99.90;;;;;;5055030;28;20196;-96
2021/11/10 06:46:51;;;;;;;9.03;5.83;;;2.00;99.90;;;;;;5055171;28;20205;-96
2021/11/10 06:49:17;;;;;;;9.83;5.87;;;1.90;99.90;;;;;;5055032;28;20193;-96
2021/11/10 06:51:43;;;;;;;10.70;6.57;;;2.00;99.90;;;;;;5055323;28;20221;-96
2021/11/10 06:54:24;;;;;;;10.27;6.33;;;2.00;99.90;;;;;;5054905;28;20244;-95
2021/11/10 06:56:50;;;;;;;11.67;6.67;;;2.00;99.90;;;;;;5055313;28;20190;-96
2021/11/10 06:59:17;;;;;;;15.83;6.80;;;2.00;99.90;;;;;;5055052;28;20186;-95
2021/11/10 07:01:43;;;;;;;12.20;6.70;;;2.00;99.90;;;;;;5039950;28;20194;-95
2021/11/10 07:04:21;;;;;;;11.57;6.00;;;1.90;99.90;;;;;;5019003;28;20186;-95
2021/11/10 07:06:47;;;;;;;10.43;6.20;;;1.90;99.90;;;;;;5047818;28;20197;-95
2021/11/10 07:09:13;;;;;;;12.53;6.20;;;2.00;99.90;;;;;;5054926;28;20276;-94
2021/11/10 07:11:39;;;;;;;10.10;5.83;;;2.00;99.90;;;;;;5054908;28;20299;-94
2021/11/10 07:14:25;;;;;;;11.07;5.90;;;2.10;99.90;;;;;;5054961;28;20225;-93
2021/11/10 07:16:51;;;;;;;11.63;4.97;;;2.10;99.90;;;;;;5054783;28;20200;-95
2021/11/10 07:19:17;;;;;;;11.77;6.00;;;2.10;99.90;;;;;;5054857;28;20185;-95
2021/11/10 07:21:44;;;;;;;9.80;5.63;;;2.20;99.90;;;;;;5054417;28;20194;-95
2021/11/10 07:24:22;;;;;;;8.13;5.27;;;2.30;99.90;;;;;;5053946;28;20543;-93
2021/11/10 07:26:48;;;;;;;9.50;5.93;;;2.30;99.90;;;;;;5054744;28;20189;-96
2021/11/10 07:29:15;;;;;;;7.90;5.53;;;2.40;99.90;;;;;;5055311;28;20253;-96
2021/11/10 07:31:40;;;;;;;10.03;5.60;;;2.50;99.90;;;;;;5057779;28;20222;-96
2021/11/10 07:34:07;;;;;;;9.67;5.83;;;2.60;99.90;;;;;;5060081;28;20616;-96
2021/11/10 07:36:33;;;;;;;12.90;6.93;;;2.70;99.90;;;;;;5060225;28;20243;-95
2021/11/10 07:38:59;;;;;;;9.37;6.27;;;2.80;99.90;;;;;;5059466;28;20604;-96
2021/11/10 07:41:32;;;;;;;11.73;6.40;;;2.80;99.90;;;;;;5058340;28;20225;-95
2021/11/10 07:44:36;;;;;;;11.33;6.50;;;2.90;99.90;;;;;;5059817;28;20224;-96
2021/11/10 07:47:23;;;;;;;12.13;6.77;;;2.90;99.90;;;;;;5058958;28;20196;-96
2021/11/10 07:49:52;;;;;;;13.47;6.83;;;2.90;99.90;;;;;;5044861;28;20212;-95
2021/11/10 07:52:18;;;;;;;13.07;6.33;;;3.00;99.90;;;;;;5058971;28;20679;-96
2021/11/10 07:54:44;;;;;;;12.13;6.80;;;3.00;99.90;;;;;;5059872;28;20181;-96
2021/11/10 07:57:10;;;;;;;10.93;7.27;;;3.10;99.90;;;;;;5059939;28;20657;-96
2021/11/10 07:59:56;;;;;;;11.13;6.57;;;3.10;99.90;;;;;;5061342;28;20182;-96
2021/11/10 08:02:22;;;;;;;14.50;7.03;;;3.20;99.90;;;;;;5060220;28;20182;-96
2021/11/10 08:04:56;;;;;;;10.13;7.10;;;3.20;99.90;;;;;;5059759;28;20194;-96
2021/11/10 08:07:22;;;;;;;11.60;7.83;;;3.30;99.90;;;;;;5060882;28;20272;-96
2021/11/10 08:09:48;;;;;;;15.50;7.30;;;3.40;99.90;;;;;;5054034;28;20667;-96
2021/11/10 08:12:14;;;;;;;10.20;6.73;;;3.40;99.90;;;;;;5038448;28;20552;-96
2021/11/10 08:14:52;;;;;;;12.67;7.50;;;3.40;99.90;;;;;;5040493;28;20182;-96
2021/11/10 08:17:18;;;;;;;14.13;7.23;;;3.50;99.90;;;;;;5039497;28;20182;-96
2021/11/10 08:19:44;;;;;;;12.77;7.03;;;3.60;99.90;;;;;;5040778;28;20194;-96
2021/11/10 08:22:10;;;;;;;13.70;7.43;;;3.70;99.90;;;;;;5039211;28;20564;-96
2021/11/10 08:24:36;;;;;;;10.03;6.53;;;3.70;99.90;;;;;;5047186;28;20620;-96
2021/11/10 08:27:04;;;;;;;12.57;6.87;;;3.80;99.90;;;;;;5059362;28;20190;-96
2021/11/10 08:29:33;;;;;;;13.53;7.50;;;3.90;99.90;;;;;;5058888;28;20182;-96
2021/11/10 08:31:58;;;;;;;9.97;6.90;;;3.90;99.90;;;;;;5060304;28;20210;-96
2021/11/10 08:34:24;;;;;;;10.47;6.63;;;4.00;99.90;;;;;;5060178;28;20193;-96
2021/11/10 08:36:51;;;;;;;13.10;6.80;;;4.00;99.90;;;;;;5059792;28;20219;-96
2021/11/10 08:39:16;;;;;;;11.90;6.90;;;4.00;99.90;;;;;;5058635;28;20490;-96
2021/11/10 08:41:48;;;;;;;13.80;7.53;;;4.10;99.90;;;;;;5059285;28;20660;-96
2021/11/10 08:44:16;;;;;;;11.47;6.87;;;4.10;99.90;;;;;;5061011;28;20521;-96
2021/11/10 08:46:44;;;;;;;10.90;6.77;;;4.10;99.90;;;;;;5059438;28;20286;-95
2021/11/10 08:49:12;;;;;;;10.50;7.30;;;4.20;99.90;;;;;;5057770;28;20197;-96
2021/11/10 08:51:39;;;;;;;11.17;6.60;;;4.20;99.90;;;;;;5059648;28;20226;-96
2021/11/10 08:54:05;;;;;;;10.77;7.27;;;4.20;99.90;;;;;;5058111;28;20186;-96
2021/11/10 08:56:33;;;;;;;13.70;6.93;;;4.30;99.90;;;;;;5058457;28;20220;-96
2021/11/10 08:59:04;;;;;;;11.90;6.80;;;4.30;99.90;;;;;;5058052;28;20182;-96
2021/11/10 09:01:30;;;;;;;10.77;6.73;;;4.30;99.90;;;;;;5057251;28;20190;-95
2021/11/10 09:03:56;;;;;;;14.33;7.23;;;4.40;99.90;;;;;;5058287;28;20632;-95
2021/11/10 09:06:22;;;;;;;13.10;7.10;;;4.50;99.90;;;;;;5058088;28;20194;-96
2021/11/10 09:08:48;;;;;;;10.03;7.03;;;4.50;99.90;;;;;;5058332;28;20243;-95
2021/11/10 09:11:15;;;;;;;13.17;6.73;;;4.50;99.90;;;;;;5058445;28;20312;-95
2021/11/10 09:13:41;;;;;;;10.43;6.57;;;4.60;99.90;;;;;;5058627;28;20186;-95
2021/11/10 09:16:07;;;;;;;12.03;6.93;;;4.60;99.90;;;;;;5056643;28;20186;-96
2021/11/10 09:18:33;;;;;;;11.80;6.23;;;4.70;99.90;;;;;;5057267;28;20182;-96
2021/11/10 09:20:58;;;;;;;9.63;6.90;;;4.70;99.90;;;;;;5056722;28;20662;-96
2021/11/10 09:23:24;;;;;;;10.93;6.33;;;4.70;99.90;;;;;;5057006;28;20224;-95
2021/11/10 09:25:55;;;;;;;8.73;6.40;;;4.80;99.90;;;;;;5056570;28;20604;-95
2021/11/10 09:28:22;;;;;;;11.77;6.97;;;4.80;99.90;;;;;;5056384;28;20190;-96
2021/11/10 09:30:51;;;;;;;10.10;6.23;;;4.80;99.90;;;;;;5057489;28;20218;-96
2021/11/10 09:33:19;;;;;;;9.27;6.60;;;4.80;99.90;;;;;;5058868;28;20230;-95
2021/11/10 09:35:56;;;;;;;9.10;5.77;;;4.80;99.90;;;;;;5036528;28;20182;-95
2021/11/10 09:38:22;;;;;;;10.13;6.67;;;4.90;99.90;;;;;;5036436;28;20190;-95
2021/11/10 09:40:50;;;;;;;11.70;7.00;;;4.90;99.90;;;;;;5036125;28;20595;-94
2021/11/10 09:43:16;;;;;;;11.00;6.87;;;4.90;99.90;;;;;;5036067;28;20194;-94
2021/11/10 09:45:45;;;;;;;9.30;6.60;;;5.00;99.90;;;;;;5043321;28;20186;-96
2021/11/10 09:48:13;;;;;;;10.50;6.33;;;5.00;99.90;;;;;;5056290;28;20190;-94
2021/11/10 09:50:47;;;;;;;12.53;6.73;;;5.10;99.90;;;;;;5056582;28;20202;-94
2021/11/10 09:53:14;;;;;;;15.00;6.77;;;5.30;99.90;;;;;;5055654;28;20185;-94
2021/11/10 09:55:40;;;;;;;11.27;6.73;;;5.30;99.90;;;;;;5056062;28;20555;-94
2021/11/10 09:58:06;;;;;;;8.70;6.27;;;5.50;99.90;;;;;;5057941;28;20185;-94
2021/11/10 10:00:37;;;;;;;9.73;7.00;;;5.60;99.90;;;;;;5058832;28;20182;-94
2021/11/10 10:03:04;;;;;;;13.57;6.73;;;5.70;99.90;;;;;;5058175;28;20308;-95
2021/11/10 10:05:31;;;;;;;9.57;6.50;;;5.80;99.90;;;;;;5056256;28;20284;-95
2021/11/10 10:08:01;;;;;;;11.90;6.80;;;5.80;99.90;;;;;;5057270;28;20247;-96
2021/11/10 10:10:28;;;;;;;11.00;6.50;;;5.90;99.90;;;;;;5056564;28;20569;-96
2021/11/10 10:12:57;;;;;;;8.73;6.07;;;6.00;99.90;;;;;;5056472;28;20190;-95
2021/11/10 10:15:26;;;;;;;13.17;7.40;;;6.10;99.90;;;;;;5056578;28;20182;-95
2021/11/10 10:17:57;;;;;;;13.37;6.60;;;6.10;99.90;;;;;;5055951;28;20201;-95
2021/11/10 10:20:27;;;;;;;9.30;7.00;;;6.10;99.90;;;;;;5056214;28;20617;-96
2021/11/10 10:22:55;;;;;;;15.27;7.00;;;6.10;99.90;;;;;;5055921;28;20166;-94
2021/11/10 10:25:34;;;;;;;14.87;7.20;;;6.10;99.90;;;;;;5055292;28;20272;-94
2021/11/10 10:28:00;;;;;;;9.93;6.50;;;6.10;99.90;;;;;;5057533;28;20177;-94
2021/11/10 10:30:36;;;;;;;10.50;6.43;;;6.10;99.90;;;;;;5056489;28;20197;-95
2021/11/10 10:33:12;;;;;;;9.57;7.07;;;6.10;99.90;;;;;;5056525;28;20182;-93
2021/11/10 10:35:43;;;;;;;14.70;6.87;;;6.10;99.90;;;;;;5056624;28;20288;-93
2021/11/10 10:38:23;;;;;;;9.70;5.93;;;6.20;99.90;;;;;;5052545;28;20189;-95
2021/11/10 10:40:52;;;;;;;15.43;6.33;;;6.20;99.90;;;;;;5035212;28;20229;-95
2021/11/10 10:43:23;;;;;;;8.83;5.97;;;6.20;99.90;;;;;;5035579;28;20182;-95
2021/11/10 10:45:57;;;;;;;9.27;6.17;;;6.20;99.90;;;;;;5035314;28;20665;-95
2021/11/10 10:48:26;;;;;;;11.60;6.23;;;6.30;99.90;;;;;;5041564;28;20264;-94
2021/11/10 10:51:07;;;;;;;9.20;6.17;;;6.30;99.90;;;;;;5054858;28;20722;-94
2021/11/10 10:53:53;;;;;;;8.40;5.63;;;6.40;99.90;;;;;;5055011;28;20612;-94
2021/11/10 10:56:23;;;;;;;9.47;5.80;;;6.40;99.90;;;;;;5054929;28;20197;-95
2021/11/10 10:59:09;;;;;;;10.90;5.23;;;6.50;99.90;;;;;;5054898;28;20209;-95
2021/11/10 11:01:37;;;;;;;10.63;5.47;;;6.50;99.90;;;;;;5053840;28;20182;-96
2021/11/10 11:04:05;;;;;;;7.03;4.80;;;6.70;99.90;;;;;;5055048;28;20190;-96
2021/11/10 11:06:35;;;;;;;9.67;5.03;;;6.70;99.90;;;;;;5054217;28;20202;-96
2021/11/10 11:09:24;;;;;;;10.93;5.90;;;6.80;99.90;;;;;;5057841;28;20174;-95
2021/11/10 11:12:00;;;;;;;10.87;5.53;;;6.90;99.90;;;;;;5065948;28;20221;-96
2021/11/10 11:14:45;;;;;;;11.57;5.40;;;7.10;99.90;;;;;;5060861;28;20182;-96
2021/11/10 11:17:35;;;;;;;7.93;5.00;;;7.30;99.90;;;;;;5061653;28;20676;-96
2021/11/10 11:20:22;;;;;;;9.70;5.00;;;7.50;99.90;;;;;;5060295;28;20181;-96
2021/11/10 11:22:52;;;;;;;8.13;5.03;;;7.60;99.90;;;;;;5055386;28;20224;-95
2021/11/10 11:25:23;;;;;;;7.20;5.33;;;7.70;99.90;;;;;;5054924;28;20189;-96
2021/11/10 11:28:09;;;;;;;6.13;4.73;;;7.80;99.90;;;;;;5055679;28;20242;-95
2021/11/10 11:30:41;;;;;;;10.10;5.63;;;7.80;99.90;;;;;;5054955;28;20185;-96
2021/11/10 11:33:13;;;;;;;7.87;4.60;;;7.90;99.90;;;;;;5054983;28;20712;-96
2021/11/10 11:35:41;;;;;;;12.93;5.00;;;7.90;99.90;;;;;;5054855;28;20261;-96
2021/11/10 11:38:17;;;;;;;10.13;5.40;;;7.90;99.90;;;;;;5055512;28;20260;-96
2021/11/10 11:40:45;;;;;;;10.37;4.60;;;8.00;99.90;;;;;;5054476;28;20260;-96
2021/11/10 11:43:14;;;;;;;10.27;5.60;;;8.10;99.90;;;;;;5054953;28;20210;-95
2021/11/10 11:45:50;;;;;;;10.00;5.23;;;8.30;99.90;;;;;;5054617;28;20193;-95
2021/11/10 11:48:28;;;;;;;9.47;4.73;;;8.40;99.90;;;;;;5054426;28;20515;-96
2021/11/10 11:51:02;;;;;;;10.50;4.90;;;8.60;99.90;;;;;;5054061;28;20222;-96
2021/11/10 11:53:31;;;;;;;10.97;4.70;;;8.70;99.90;;;;;;5055085;28;20189;-96
2021/11/10 11:56:09;;;;;;;7.97;4.93;;;8.70;99.90;;;;;;5054303;28;20244;-95
2021/11/10 11:58:54;;;;;;;11.60;4.73;;;8.80;99.90;;;;;;5054796;28;20209;-95
2021/11/10 12:01:26;;;;;;;7.27;4.87;;;8.80;99.90;;;;;;5055141;28;20182;-96
2021/11/10 12:03:58;;;;;;;8.00;4.37;;;8.80;99.90;;;;;;5054565;28;20616;-96
2021/11/10 12:06:30;;;;;;;8.87;4.30;;;8.90;99.90;;;;;;5055778;28;20205;-96
2021/11/10 12:09:16;;;;;;;9.50;4.00;;;8.90;99.90;;;;;;5054985;28;20246;-96
2021/11/10 12:11:42;;;;;;;8.37;3.80;;;9.00;99.90;;;;;;5054622;28;20221;-96
2021/11/10 12:14:29;;;;;;;6.90;3.97;;;8.90;99.90;;;;;;5055181;28;20186;-96
2021/11/10 12:17:11;;;;;;;9.20;4.00;;;8.80;99.90;;;;;;5054960;28;20188;-96
2021/11/10 12:19:41;;;;;;;7.43;3.80;;;8.80;99.90;;;;;;5058394;28;20184;-96
2021/11/10 12:22:08;;;;;;;8.53;4.00;;;8.80;99.90;;;;;;5056890;28;20194;-96
2021/11/10 12:24:48;;;;;;;11.33;4.00;;;8.80;99.90;;;;;;5058231;28;20560;-95
2021/11/10 12:27:34;;;;;;;5.50;3.40;;;8.90;99.90;;;;;;5057572;28;20284;-96
2021/11/10 12:30:18;;;;;;;5.00;3.43;;;8.90;99.90;;;;;;5057525;28;20269;-96
2021/11/10 12:32:49;;;;;;;6.37;4.03;;;8.90;99.90;;;;;;5057882;28;20213;-96
2021/11/10 12:35:20;;;;;;;8.48;3.20;;;8.90;99.90;;;;;;5057367;28;20613;-96
2021/11/10 12:37:50;;;;;;;6.17;3.47;;;8.90;99.90;;;;;;5058117;28;20209;-96
2021/11/10 12:40:36;;;;;;;10.07;3.27;;;9.00;99.90;;;;;;5057593;28;20249;-96
2021/11/10 12:43:02;;;;;;;8.40;3.73;;;9.00;99.90;;;;;;5057024;28;20182;-96
2021/11/10 12:45:29;;;;;;;6.10;3.30;;;9.10;99.90;;;;;;5057486;28;20193;-95
2021/11/10 12:47:59;;;;;;;6.17;3.20;;;9.10;99.90;;;;;;5057236;28;20272;-96
2021/11/10 12:50:52;;;;;;;6.57;3.07;;;9.10;99.90;;;;;;5057158;28;20609;-95
2021/11/10 12:53:39;;;;;;;8.60;3.10;;;9.00;99.90;;;;;;5037012;28;20547;-94
2021/11/10 12:56:05;;;;;;;6.87;3.40;;;9.10;99.90;;;;;;5037058;28;20190;-96
2021/11/10 12:58:33;;;;;;;6.13;3.20;;;9.20;99.90;;;;;;5055505;28;20513;-94
2021/11/10 13:01:06;;;;;;;6.07;3.42;;;9.30;99.90;;;;;;5055707;28;20182;-94
2021/11/10 13:03:37;;;;;;;5.97;2.77;;;9.40;99.90;;;;;;5057210;28;20208;-96
2021/11/10 13:06:26;;;;;;;5.70;3.40;;;9.50;99.90;;;;;;5057315;28;20174;-96
2021/11/10 13:09:03;;;;;;;9.88;3.45;;;9.60;99.90;;;;;;5057119;28;20178;-95
2021/11/10 13:11:34;;;;;;;5.97;3.20;;;9.70;99.90;;;;;;5057397;28;20221;-96
2021/11/10 13:14:10;;;;;;;7.22;3.40;;;9.90;99.90;;;;;;5056788;28;20186;-96
2021/11/10 13:16:38;;;;;;;10.32;3.50;;;10.10;99.90;;;;;;5056808;28;20217;-95
2021/11/10 13:19:07;;;;;;;8.68;3.85;;;10.30;99.90;;;;;;5056343;28;20272;-95
2021/11/10 13:21:32;;;;;;;8.68;3.08;;;10.50;99.90;;;;;;5057011;28;20178;-94
2021/11/10 13:24:10;;;;;;;9.00;3.50;;;10.60;99.90;;;;;;5056882;28;20192;-96
2021/11/10 13:26:36;;;;;;;9.02;2.72;;;10.70;99.90;;;;;;5055923;28;20245;-96
2021/11/10 13:29:08;;;;;;;5.38;2.80;;;10.70;99.90;;;;;;5055547;28;20635;-96
2021/11/10 13:31:34;;;;;;;6.13;3.10;;;10.80;99.90;;;;;;5056955;28;20221;-95
2021/11/10 13:34:00;;;;;;;4.55;2.80;;;10.70;99.90;;;;;;5056846;28;20182;-95
2021/11/10 13:36:27;;;;;;;5.78;3.03;;;10.60;99.90;;;;;;5056877;28;20620;-95
2021/11/10 13:39:11;;;;;;;5.82;3.17;;;10.50;99.90;;;;;;5056205;28;20182;-95
2021/11/10 13:41:48;;;;;;;9.57;3.22;;;10.40;99.90;;;;;;5055893;28;20682;-95
2021/11/10 13:44:24;;;;;;;11.93;3.05;;;10.20;99.90;;;;;;5056451;28;20181;-95
2021/11/10 13:46:53;;;;;;;7.93;3.10;;;10.00;99.90;;;;;;5056241;28;20190;-95
2021/11/10 13:49:34;;;;;;;11.37;3.90;;;9.80;99.90;;;;;;5046351;28;20218;-96
2021/11/10 13:52:14;;;;;;;6.90;3.17;;;9.60;99.90;;;;;;5038528;28;20245;-95
2021/11/10 13:54:51;;;;;;;6.75;3.42;;;9.50;99.90;;;;;;5035970;28;20182;-95
2021/11/10 13:57:21;;;;;;;6.95;3.10;;;9.40;99.90;;;;;;5036433;28;20214;-96
2021/11/10 13:59:50;;;;;;;5.43;3.10;;;9.30;99.90;;;;;;5036598;28;20189;-96
2021/11/10 14:02:20;;;;;;;7.65;3.25;;;9.30;99.90;;;;;;5047868;28;20186;-96
2021/11/10 14:04:54;;;;;;;9.38;3.13;;;9.20;99.90;;;;;;5056044;28;20260;-96
2021/11/10 14:07:41;;;;;;;6.28;2.70;;;9.20;99.90;;;;;;5056006;28;20178;-96
2021/11/10 14:10:10;;;;;;;4.67;2.73;;;9.20;99.90;;;;;;5054816;28;20201;-96
2021/11/10 14:12:53;;;;;;;5.22;2.35;;;9.20;99.90;;;;;;5056300;28;20221;-96
2021/11/10 14:15:35;;;;;;;5.03;2.50;;;9.10;99.90;;;;;;5057383;28;20529;-96
2021/11/10 14:18:20;;;;;;;7.88;2.45;;;9.00;99.90;;;;;;5055818;28;20221;-96
2021/11/10 14:20:47;;;;;;;9.07;2.70;;;9.00;99.90;;;;;;5058208;28;20178;-96
2021/11/10 14:23:22;;;;;;;9.50;3.30;;;8.90;99.90;;;;;;5055558;28;20185;-96
2021/11/10 14:25:58;;;;;;;6.22;2.70;;;8.90;99.90;;;;;;5055497;28;20176;-96
2021/11/10 14:28:30;;;;;;;5.87;2.70;;;8.80;99.90;;;;;;5054457;28;20189;-96
2021/11/10 14:31:03;;;;;;;3.78;2.20;;;8.80;99.90;;;;;;5055210;28;20214;-96
2021/11/10 14:33:34;;;;;;;9.67;2.77;;;8.80;99.90;;;;;;5055508;28;20240;-96
2021/11/10 14:36:07;;;;;;;8.63;2.45;;;8.80;99.90;;;;;;5055491;28;20643;-96
2021/11/10 14:38:55;;;;;;;8.13;2.90;;;8.70;99.90;;;;;;5055490;28;20185;-96
2021/11/10 14:41:39;;;;;;;9.32;3.25;;;8.70;99.90;;;;;;5055113;28;20260;-96
2021/11/10 14:44:11;;;;;;;5.97;3.10;;;8.70;99.90;;;;;;5055399;28;20181;-96
2021/11/10 14:46:38;;;;;;;6.03;3.00;;;8.60;99.90;;;;;;5055316;28;20186;-96